sensor_id;sensor_type;location;lat;lon;timestamp;temperature;humidity
16412;DHT22;8315;52.104;6.304;2022-11-20T00:00:19;-1.70;98.40
16412;DHT22;8315;52.104;6.304;2022-11-20T00:02:46;-1.80;98.40
16412;DHT22;8315;52.104;6.304;2022-11-20T00:05:13;-1.90;98.40
16412;DHT22;8315;52.104;6.304;2022-11-20T00:07:40;-1.80;98.40
16412;DHT22;8315;52.104;6.304;2022-11-20T00:10:07;-1.70;98.40
16412;DHT22;8315;52.104;6.304;2022-11-20T00:12:34;-1.80;98.40
16412;DHT22;8315;52.104;6.304;2022-11-20T00:15:01;-1.70;98.40
16412;DHT22;8315;52.104;6.304;2022-11-20T00:17:29;-1.70;98.40
16412;DHT22;8315;52.104;6.304;2022-11-20T00:19:55;-1.60;98.40
16412;DHT22;8315;52.104;6.304;2022-11-20T00:22:22;-1.60;98.40
16412;DHT22;8315;52.104;6.304;2022-11-20T00:24:49;-1.70;98.40
16412;DHT22;8315;52.104;6.304;2022-11-20T00:27:16;-1.80;98.40
16412;DHT22;8315;52.104;6.304;2022-11-20T00:29:42;-1.80;98.40
16412;DHT22;8315;52.104;6.304;2022-11-20T00:32:09;-1.80;98.40
16412;DHT22;8315;52.104;6.304;2022-11-20T00:34:37;-1.90;98.40
16412;DHT22;8315;52.104;6.304;2022-11-20T00:37:04;-1.90;98.40
16412;DHT22;8315;52.104;6.304;2022-11-20T00:39:31;-1.90;98.40
16412;DHT22;8315;52.104;6.304;2022-11-20T00:41:57;-1.90;98.40
16412;DHT22;8315;52.104;6.304;2022-11-20T00:44:24;-1.90;98.40
16412;DHT22;8315;52.104;6.304;2022-11-20T00:46:51;-1.90;98.40
16412;DHT22;8315;52.104;6.304;2022-11-20T00:49:18;-1.90;98.40
16412;DHT22;8315;52.104;6.304;2022-11-20T00:51:46;-1.90;98.40
16412;DHT22;8315;52.104;6.304;2022-11-20T00:54:12;-2.00;98.40
16412;DHT22;8315;52.104;6.304;2022-11-20T00:56:39;-2.10;98.40
16412;DHT22;8315;52.104;6.304;2022-11-20T00:59:08;-2.00;98.40
16412;DHT22;8315;52.104;6.304;2022-11-20T01:01:35;-2.00;98.40
16412;DHT22;8315;52.104;6.304;2022-11-20T01:04:02;-2.00;98.40
16412;DHT22;8315;52.104;6.304;2022-11-20T01:06:30;-2.00;98.40
16412;DHT22;8315;52.104;6.304;2022-11-20T01:09:00;-2.10;98.40
16412;DHT22;8315;52.104;6.304;2022-11-20T01:11:30;-2.20;98.40
16412;DHT22;8315;52.104;6.304;2022-11-20T01:13:58;-2.10;98.40
16412;DHT22;8315;52.104;6.304;2022-11-20T01:16:26;-2.10;98.40
16412;DHT22;8315;52.104;6.304;2022-11-20T01:18:55;-2.20;98.40
16412;DHT22;8315;52.104;6.304;2022-11-20T01:21:23;-2.20;98.40
16412;DHT22;8315;52.104;6.304;2022-11-20T01:23:51;-2.20;98.40
16412;DHT22;8315;52.104;6.304;2022-11-20T01:26:20;-2.20;98.40
16412;DHT22;8315;52.104;6.304;2022-11-20T01:28:48;-2.20;98.40
16412;DHT22;8315;52.104;6.304;2022-11-20T01:31:16;-2.30;98.40
16412;DHT22;8315;52.104;6.304;2022-11-20T01:33:45;-2.30;98.40
16412;DHT22;8315;52.104;6.304;2022-11-20T01:36:13;-2.30;98.40
16412;DHT22;8315;52.104;6.304;2022-11-20T01:38:40;-2.40;98.40
16412;DHT22;8315;52.104;6.304;2022-11-20T01:41:07;-2.60;98.40
16412;DHT22;8315;52.104;6.304;2022-11-20T01:43:36;-2.50;98.40
16412;DHT22;8315;52.104;6.304;2022-11-20T01:46:03;-2.40;98.40
16412;DHT22;8315;52.104;6.304;2022-11-20T01:48:33;-2.40;98.40
16412;DHT22;8315;52.104;6.304;2022-11-20T01:51:03;-2.50;98.40
16412;DHT22;8315;52.104;6.304;2022-11-20T01:53:31;-2.60;98.40
16412;DHT22;8315;52.104;6.304;2022-11-20T01:56:00;-2.60;98.40
16412;DHT22;8315;52.104;6.304;2022-11-20T01:58:28;-2.50;98.40
16412;DHT22;8315;52.104;6.304;2022-11-20T02:00:58;-2.50;98.40
16412;DHT22;8315;52.104;6.304;2022-11-20T02:03:25;-2.50;98.40
16412;DHT22;8315;52.104;6.304;2022-11-20T02:05:54;-2.50;98.40
16412;DHT22;8315;52.104;6.304;2022-11-20T02:08:22;-2.60;98.40
16412;DHT22;8315;52.104;6.304;2022-11-20T02:10:49;-2.50;98.40
16412;DHT22;8315;52.104;6.304;2022-11-20T02:13:16;-2.60;98.40
16412;DHT22;8315;52.104;6.304;2022-11-20T02:16:02;-2.60;98.40
16412;DHT22;8315;52.104;6.304;2022-11-20T02:18:30;-2.70;98.40
16412;DHT22;8315;52.104;6.304;2022-11-20T02:20:58;-2.70;98.40
16412;DHT22;8315;52.104;6.304;2022-11-20T02:23:28;-2.70;98.40
16412;DHT22;8315;52.104;6.304;2022-11-20T02:26:00;-2.80;98.40
16412;DHT22;8315;52.104;6.304;2022-11-20T02:28:28;-2.80;98.40
16412;DHT22;8315;52.104;6.304;2022-11-20T02:30:55;-2.70;98.40
16412;DHT22;8315;52.104;6.304;2022-11-20T02:33:22;-2.80;98.40
16412;DHT22;8315;52.104;6.304;2022-11-20T02:35:49;-2.90;98.40
16412;DHT22;8315;52.104;6.304;2022-11-20T02:38:16;-2.80;98.40
16412;DHT22;8315;52.104;6.304;2022-11-20T02:40:43;-2.70;98.40
16412;DHT22;8315;52.104;6.304;2022-11-20T02:43:11;-2.70;98.40
16412;DHT22;8315;52.104;6.304;2022-11-20T02:45:38;-2.70;98.40
16412;DHT22;8315;52.104;6.304;2022-11-20T02:48:05;-2.70;98.40
16412;DHT22;8315;52.104;6.304;2022-11-20T02:50:32;-2.70;98.40
16412;DHT22;8315;52.104;6.304;2022-11-20T02:52:59;-2.90;98.40
16412;DHT22;8315;52.104;6.304;2022-11-20T02:55:25;-2.90;98.40
16412;DHT22;8315;52.104;6.304;2022-11-20T02:57:52;-2.90;98.40
16412;DHT22;8315;52.104;6.304;2022-11-20T03:00:20;-2.90;98.40
16412;DHT22;8315;52.104;6.304;2022-11-20T03:02:47;-2.90;98.40
16412;DHT22;8315;52.104;6.304;2022-11-20T03:05:14;-2.80;98.40
16412;DHT22;8315;52.104;6.304;2022-11-20T03:07:41;-2.80;98.40
16412;DHT22;8315;52.104;6.304;2022-11-20T03:10:09;-2.70;98.40
16412;DHT22;8315;52.104;6.304;2022-11-20T03:12:36;-2.80;98.40
16412;DHT22;8315;52.104;6.304;2022-11-20T03:15:03;-2.80;98.40
16412;DHT22;8315;52.104;6.304;2022-11-20T03:17:32;-2.70;98.40
16412;DHT22;8315;52.104;6.304;2022-11-20T03:19:58;-2.70;98.40
16412;DHT22;8315;52.104;6.304;2022-11-20T03:22:25;-2.80;98.40
16412;DHT22;8315;52.104;6.304;2022-11-20T03:24:52;-2.90;98.40
16412;DHT22;8315;52.104;6.304;2022-11-20T03:27:20;-3.00;98.40
16412;DHT22;8315;52.104;6.304;2022-11-20T03:29:47;-3.00;98.40
16412;DHT22;8315;52.104;6.304;2022-11-20T03:32:14;-3.10;98.40
16412;DHT22;8315;52.104;6.304;2022-11-20T03:34:42;-3.10;98.40
16412;DHT22;8315;52.104;6.304;2022-11-20T03:37:09;-3.10;98.40
16412;DHT22;8315;52.104;6.304;2022-11-20T03:39:36;-3.00;98.40
16412;DHT22;8315;52.104;6.304;2022-11-20T03:42:03;-3.10;98.40
16412;DHT22;8315;52.104;6.304;2022-11-20T03:44:50;-3.10;98.40
16412;DHT22;8315;52.104;6.304;2022-11-20T03:47:16;-3.10;98.40
16412;DHT22;8315;52.104;6.304;2022-11-20T03:49:44;-3.20;98.40
16412;DHT22;8315;52.104;6.304;2022-11-20T03:52:11;-3.30;98.40
16412;DHT22;8315;52.104;6.304;2022-11-20T03:54:38;-3.30;98.40
16412;DHT22;8315;52.104;6.304;2022-11-20T03:57:05;-3.50;98.40
16412;DHT22;8315;52.104;6.304;2022-11-20T03:59:31;-3.50;98.40
16412;DHT22;8315;52.104;6.304;2022-11-20T04:01:58;-3.40;98.40
16412;DHT22;8315;52.104;6.304;2022-11-20T04:04:25;-3.40;98.40
16412;DHT22;8315;52.104;6.304;2022-11-20T04:06:53;-3.40;98.40
16412;DHT22;8315;52.104;6.304;2022-11-20T04:09:20;-3.40;98.40
16412;DHT22;8315;52.104;6.304;2022-11-20T04:11:47;-3.40;98.40
16412;DHT22;8315;52.104;6.304;2022-11-20T04:14:14;-3.30;98.40
16412;DHT22;8315;52.104;6.304;2022-11-20T04:16:41;-3.40;98.40
16412;DHT22;8315;52.104;6.304;2022-11-20T04:19:09;-3.50;98.40
16412;DHT22;8315;52.104;6.304;2022-11-20T04:21:37;-3.50;98.40
16412;DHT22;8315;52.104;6.304;2022-11-20T04:24:05;-3.50;98.40
16412;DHT22;8315;52.104;6.304;2022-11-20T04:26:33;-3.40;98.40
16412;DHT22;8315;52.104;6.304;2022-11-20T04:29:00;-3.40;98.40
16412;DHT22;8315;52.104;6.304;2022-11-20T04:31:28;-3.40;98.40
16412;DHT22;8315;52.104;6.304;2022-11-20T04:33:58;-3.30;98.40
16412;DHT22;8315;52.104;6.304;2022-11-20T04:36:25;-3.40;98.40
16412;DHT22;8315;52.104;6.304;2022-11-20T04:38:54;-3.40;98.40
16412;DHT22;8315;52.104;6.304;2022-11-20T04:41:23;-3.50;98.40
16412;DHT22;8315;52.104;6.304;2022-11-20T04:43:52;-3.50;98.40
16412;DHT22;8315;52.104;6.304;2022-11-20T04:46:24;-3.50;98.40
16412;DHT22;8315;52.104;6.304;2022-11-20T04:48:51;-3.50;98.40
16412;DHT22;8315;52.104;6.304;2022-11-20T04:51:18;-3.50;98.40
16412;DHT22;8315;52.104;6.304;2022-11-20T04:53:45;-3.50;98.40
16412;DHT22;8315;52.104;6.304;2022-11-20T04:56:12;-3.60;98.40
16412;DHT22;8315;52.104;6.304;2022-11-20T04:58:41;-3.50;98.40
16412;DHT22;8315;52.104;6.304;2022-11-20T05:01:09;-3.50;98.40
16412;DHT22;8315;52.104;6.304;2022-11-20T05:03:36;-3.60;98.40
16412;DHT22;8315;52.104;6.304;2022-11-20T05:06:04;-3.60;98.40
16412;DHT22;8315;52.104;6.304;2022-11-20T05:08:32;-3.60;98.40
16412;DHT22;8315;52.104;6.304;2022-11-20T05:10:59;-3.60;98.40
16412;DHT22;8315;52.104;6.304;2022-11-20T05:13:27;-3.60;98.40
16412;DHT22;8315;52.104;6.304;2022-11-20T05:15:55;-3.60;98.40
16412;DHT22;8315;52.104;6.304;2022-11-20T05:18:21;-3.50;98.40
16412;DHT22;8315;52.104;6.304;2022-11-20T05:20:54;-3.60;98.40
16412;DHT22;8315;52.104;6.304;2022-11-20T05:23:21;-3.60;98.40
16412;DHT22;8315;52.104;6.304;2022-11-20T05:25:48;-3.60;98.40
16412;DHT22;8315;52.104;6.304;2022-11-20T05:28:14;-3.60;98.40
16412;DHT22;8315;52.104;6.304;2022-11-20T05:30:41;-3.60;98.40
16412;DHT22;8315;52.104;6.304;2022-11-20T05:33:09;-3.60;98.40
16412;DHT22;8315;52.104;6.304;2022-11-20T05:35:36;-3.70;98.40
16412;DHT22;8315;52.104;6.304;2022-11-20T05:38:03;-3.80;98.40
16412;DHT22;8315;52.104;6.304;2022-11-20T05:40:29;-3.80;98.40
16412;DHT22;8315;52.104;6.304;2022-11-20T05:42:56;-3.80;98.40
16412;DHT22;8315;52.104;6.304;2022-11-20T05:45:23;-3.80;98.40
16412;DHT22;8315;52.104;6.304;2022-11-20T05:47:50;-3.80;98.40
16412;DHT22;8315;52.104;6.304;2022-11-20T05:50:18;-3.80;98.40
16412;DHT22;8315;52.104;6.304;2022-11-20T05:52:45;-3.70;98.40
16412;DHT22;8315;52.104;6.304;2022-11-20T05:55:11;-3.80;98.40
16412;DHT22;8315;52.104;6.304;2022-11-20T05:57:38;-3.80;98.40
16412;DHT22;8315;52.104;6.304;2022-11-20T06:00:06;-3.80;98.40
16412;DHT22;8315;52.104;6.304;2022-11-20T06:02:34;-3.80;98.40
16412;DHT22;8315;52.104;6.304;2022-11-20T06:05:01;-3.90;98.40
16412;DHT22;8315;52.104;6.304;2022-11-20T06:07:29;-4.00;98.40
16412;DHT22;8315;52.104;6.304;2022-11-20T06:09:56;-4.10;98.40
16412;DHT22;8315;52.104;6.304;2022-11-20T06:12:22;-4.00;98.40
16412;DHT22;8315;52.104;6.304;2022-11-20T06:14:49;-3.90;98.40
16412;DHT22;8315;52.104;6.304;2022-11-20T06:17:16;-3.90;98.40
16412;DHT22;8315;52.104;6.304;2022-11-20T06:19:43;-3.90;98.40
16412;DHT22;8315;52.104;6.304;2022-11-20T06:22:09;-3.80;98.40
16412;DHT22;8315;52.104;6.304;2022-11-20T06:24:37;-3.80;98.40
16412;DHT22;8315;52.104;6.304;2022-11-20T06:27:04;-3.80;98.40
16412;DHT22;8315;52.104;6.304;2022-11-20T06:29:31;-3.90;98.40
16412;DHT22;8315;52.104;6.304;2022-11-20T06:31:58;-3.90;98.40
16412;DHT22;8315;52.104;6.304;2022-11-20T06:34:24;-3.90;98.40
16412;DHT22;8315;52.104;6.304;2022-11-20T06:36:51;-3.90;98.40
16412;DHT22;8315;52.104;6.304;2022-11-20T06:39:18;-3.90;98.40
16412;DHT22;8315;52.104;6.304;2022-11-20T06:41:46;-3.90;98.40
16412;DHT22;8315;52.104;6.304;2022-11-20T06:44:13;-3.90;98.40
16412;DHT22;8315;52.104;6.304;2022-11-20T06:46:39;-4.00;98.40
16412;DHT22;8315;52.104;6.304;2022-11-20T06:49:06;-4.00;98.40
16412;DHT22;8315;52.104;6.304;2022-11-20T06:51:33;-4.10;98.40
16412;DHT22;8315;52.104;6.304;2022-11-20T06:54:00;-4.10;98.40
16412;DHT22;8315;52.104;6.304;2022-11-20T06:56:27;-4.10;98.40
16412;DHT22;8315;52.104;6.304;2022-11-20T06:58:55;-4.00;98.40
16412;DHT22;8315;52.104;6.304;2022-11-20T07:01:22;-4.00;98.40
16412;DHT22;8315;52.104;6.304;2022-11-20T07:03:49;-4.10;98.40
16412;DHT22;8315;52.104;6.304;2022-11-20T07:06:16;-4.10;98.40
16412;DHT22;8315;52.104;6.304;2022-11-20T07:08:43;-4.10;98.40
16412;DHT22;8315;52.104;6.304;2022-11-20T07:11:11;-4.20;98.40
16412;DHT22;8315;52.104;6.304;2022-11-20T07:13:38;-4.20;98.40
16412;DHT22;8315;52.104;6.304;2022-11-20T07:16:07;-4.10;98.40
16412;DHT22;8315;52.104;6.304;2022-11-20T07:18:34;-4.10;98.40
16412;DHT22;8315;52.104;6.304;2022-11-20T07:21:01;-4.20;98.40
16412;DHT22;8315;52.104;6.304;2022-11-20T07:23:28;-4.20;98.40
16412;DHT22;8315;52.104;6.304;2022-11-20T07:25:55;-4.10;98.40
16412;DHT22;8315;52.104;6.304;2022-11-20T07:28:22;-4.10;98.40
16412;DHT22;8315;52.104;6.304;2022-11-20T07:30:49;-4.20;98.40
16412;DHT22;8315;52.104;6.304;2022-11-20T07:33:18;-4.10;98.40
16412;DHT22;8315;52.104;6.304;2022-11-20T07:35:45;-4.10;98.40
16412;DHT22;8315;52.104;6.304;2022-11-20T07:38:11;-4.10;98.40
16412;DHT22;8315;52.104;6.304;2022-11-20T07:40:38;-4.00;98.40
16412;DHT22;8315;52.104;6.304;2022-11-20T07:43:05;-4.00;98.40
16412;DHT22;8315;52.104;6.304;2022-11-20T07:45:32;-4.10;98.40
16412;DHT22;8315;52.104;6.304;2022-11-20T07:47:59;-4.10;98.40
16412;DHT22;8315;52.104;6.304;2022-11-20T07:50:27;-4.00;98.40
16412;DHT22;8315;52.104;6.304;2022-11-20T07:52:59;-3.90;98.40
16412;DHT22;8315;52.104;6.304;2022-11-20T07:55:27;-3.80;98.40
16412;DHT22;8315;52.104;6.304;2022-11-20T07:57:55;-3.70;98.40
16412;DHT22;8315;52.104;6.304;2022-11-20T08:00:22;-3.60;98.40
16412;DHT22;8315;52.104;6.304;2022-11-20T08:02:49;-3.60;98.40
16412;DHT22;8315;52.104;6.304;2022-11-20T08:05:16;-3.50;98.40
16412;DHT22;8315;52.104;6.304;2022-11-20T08:07:44;-3.50;98.40
16412;DHT22;8315;52.104;6.304;2022-11-20T08:10:12;-3.40;98.40
16412;DHT22;8315;52.104;6.304;2022-11-20T08:12:43;-3.30;98.40
16412;DHT22;8315;52.104;6.304;2022-11-20T08:15:28;-3.30;98.40
16412;DHT22;8315;52.104;6.304;2022-11-20T08:17:58;-3.20;98.40
16412;DHT22;8315;52.104;6.304;2022-11-20T08:20:26;-3.10;98.40
16412;DHT22;8315;52.104;6.304;2022-11-20T08:22:58;-3.10;98.40
16412;DHT22;8315;52.104;6.304;2022-11-20T08:25:26;-3.00;98.40
16412;DHT22;8315;52.104;6.304;2022-11-20T08:27:53;-3.00;98.40
16412;DHT22;8315;52.104;6.304;2022-11-20T08:30:20;-2.80;98.40
16412;DHT22;8315;52.104;6.304;2022-11-20T08:32:47;-2.70;98.40
16412;DHT22;8315;52.104;6.304;2022-11-20T08:35:13;-2.70;98.40
16412;DHT22;8315;52.104;6.304;2022-11-20T08:37:40;-2.70;98.40
16412;DHT22;8315;52.104;6.304;2022-11-20T08:40:10;-2.60;98.40
16412;DHT22;8315;52.104;6.304;2022-11-20T08:42:45;-2.40;98.40
16412;DHT22;8315;52.104;6.304;2022-11-20T08:45:12;-2.40;98.40
16412;DHT22;8315;52.104;6.304;2022-11-20T08:47:39;-2.30;98.40
16412;DHT22;8315;52.104;6.304;2022-11-20T08:50:06;-2.30;98.40
16412;DHT22;8315;52.104;6.304;2022-11-20T08:52:33;-2.30;98.40
16412;DHT22;8315;52.104;6.304;2022-11-20T08:55:00;-2.30;98.40
16412;DHT22;8315;52.104;6.304;2022-11-20T08:57:28;-2.30;98.40
16412;DHT22;8315;52.104;6.304;2022-11-20T08:59:57;-2.30;98.40
16412;DHT22;8315;52.104;6.304;2022-11-20T09:02:24;-2.10;98.40
16412;DHT22;8315;52.104;6.304;2022-11-20T09:04:51;-1.90;98.40
16412;DHT22;8315;52.104;6.304;2022-11-20T09:07:18;-1.70;98.40
16412;DHT22;8315;52.104;6.304;2022-11-20T09:09:45;-1.70;98.40
16412;DHT22;8315;52.104;6.304;2022-11-20T09:12:13;-1.60;98.40
16412;DHT22;8315;52.104;6.304;2022-11-20T09:14:41;-1.60;98.40
16412;DHT22;8315;52.104;6.304;2022-11-20T09:17:09;-1.50;98.40
16412;DHT22;8315;52.104;6.304;2022-11-20T09:19:38;-1.40;98.40
16412;DHT22;8315;52.104;6.304;2022-11-20T09:22:06;-1.40;98.40
16412;DHT22;8315;52.104;6.304;2022-11-20T09:24:33;-1.30;98.40
16412;DHT22;8315;52.104;6.304;2022-11-20T09:27:03;-1.30;98.40
16412;DHT22;8315;52.104;6.304;2022-11-20T09:29:30;-1.20;98.40
16412;DHT22;8315;52.104;6.304;2022-11-20T09:31:58;-1.10;98.40
16412;DHT22;8315;52.104;6.304;2022-11-20T09:34:25;-1.00;98.40
16412;DHT22;8315;52.104;6.304;2022-11-20T09:36:52;-0.90;98.40
16412;DHT22;8315;52.104;6.304;2022-11-20T09:39:19;-0.80;98.40
16412;DHT22;8315;52.104;6.304;2022-11-20T09:41:49;-0.70;98.40
16412;DHT22;8315;52.104;6.304;2022-11-20T09:44:26;-0.50;98.40
16412;DHT22;8315;52.104;6.304;2022-11-20T09:47:02;-0.30;98.40
16412;DHT22;8315;52.104;6.304;2022-11-20T09:49:37;-0.40;98.40
16412;DHT22;8315;52.104;6.304;2022-11-20T09:52:22;-0.40;98.40
16412;DHT22;8315;52.104;6.304;2022-11-20T09:54:55;-0.40;98.40
16412;DHT22;8315;52.104;6.304;2022-11-20T09:57:23;-0.30;98.40
16412;DHT22;8315;52.104;6.304;2022-11-20T09:59:53;-0.20;98.40
16412;DHT22;8315;52.104;6.304;2022-11-20T10:02:26;-0.30;98.40
16412;DHT22;8315;52.104;6.304;2022-11-20T10:04:55;-0.10;98.40
16412;DHT22;8315;52.104;6.304;2022-11-20T10:07:27;-0.10;98.40
16412;DHT22;8315;52.104;6.304;2022-11-20T10:09:57;-0.10;98.40
16412;DHT22;8315;52.104;6.304;2022-11-20T10:12:27;0.10;98.40
16412;DHT22;8315;52.104;6.304;2022-11-20T10:15:04;0.10;98.40
16412;DHT22;8315;52.104;6.304;2022-11-20T10:17:46;0.20;98.40
16412;DHT22;8315;52.104;6.304;2022-11-20T10:20:24;0.30;98.40
16412;DHT22;8315;52.104;6.304;2022-11-20T10:23:02;0.40;98.40
16412;DHT22;8315;52.104;6.304;2022-11-20T10:25:39;0.30;98.40
16412;DHT22;8315;52.104;6.304;2022-11-20T10:28:12;0.40;98.40
16412;DHT22;8315;52.104;6.304;2022-11-20T10:30:43;0.40;98.40
16412;DHT22;8315;52.104;6.304;2022-11-20T10:33:15;0.60;98.40
16412;DHT22;8315;52.104;6.304;2022-11-20T10:35:44;0.70;98.40
16412;DHT22;8315;52.104;6.304;2022-11-20T10:38:13;0.80;98.40
16412;DHT22;8315;52.104;6.304;2022-11-20T10:40:45;0.80;98.40
16412;DHT22;8315;52.104;6.304;2022-11-20T10:43:13;0.90;98.40
16412;DHT22;8315;52.104;6.304;2022-11-20T10:45:45;1.00;98.40
16412;DHT22;8315;52.104;6.304;2022-11-20T10:48:16;1.00;98.40
16412;DHT22;8315;52.104;6.304;2022-11-20T10:50:49;1.10;98.40
16412;DHT22;8315;52.104;6.304;2022-11-20T10:53:28;1.00;98.40
16412;DHT22;8315;52.104;6.304;2022-11-20T10:56:03;1.10;98.40
16412;DHT22;8315;52.104;6.304;2022-11-20T10:58:34;1.20;98.40
16412;DHT22;8315;52.104;6.304;2022-11-20T11:01:05;1.30;98.40
16412;DHT22;8315;52.104;6.304;2022-11-20T11:03:33;1.30;98.40
16412;DHT22;8315;52.104;6.304;2022-11-20T11:06:02;1.30;98.40
16412;DHT22;8315;52.104;6.304;2022-11-20T11:08:34;1.40;98.40
16412;DHT22;8315;52.104;6.304;2022-11-20T11:11:05;1.60;98.40
16412;DHT22;8315;52.104;6.304;2022-11-20T11:13:41;1.60;98.40
16412;DHT22;8315;52.104;6.304;2022-11-20T11:16:16;1.70;98.40
16412;DHT22;8315;52.104;6.304;2022-11-20T11:18:48;1.80;98.40
16412;DHT22;8315;52.104;6.304;2022-11-20T11:21:19;2.00;98.40
16412;DHT22;8315;52.104;6.304;2022-11-20T11:23:48;2.20;98.40
16412;DHT22;8315;52.104;6.304;2022-11-20T11:26:23;2.40;98.40
16412;DHT22;8315;52.104;6.304;2022-11-20T11:28:54;2.50;98.40
16412;DHT22;8315;52.104;6.304;2022-11-20T11:31:23;2.60;98.40
16412;DHT22;8315;52.104;6.304;2022-11-20T11:33:51;2.70;98.40
16412;DHT22;8315;52.104;6.304;2022-11-20T11:36:19;2.60;98.40
16412;DHT22;8315;52.104;6.304;2022-11-20T11:38:50;2.60;98.40
16412;DHT22;8315;52.104;6.304;2022-11-20T11:41:19;2.60;98.40
16412;DHT22;8315;52.104;6.304;2022-11-20T11:43:49;2.60;98.40
16412;DHT22;8315;52.104;6.304;2022-11-20T11:46:35;2.80;98.40
16412;DHT22;8315;52.104;6.304;2022-11-20T11:49:11;2.90;98.40
16412;DHT22;8315;52.104;6.304;2022-11-20T11:51:42;3.00;98.40
16412;DHT22;8315;52.104;6.304;2022-11-20T11:54:15;3.00;98.40
16412;DHT22;8315;52.104;6.304;2022-11-20T11:56:45;3.00;98.40
16412;DHT22;8315;52.104;6.304;2022-11-20T11:59:13;3.00;98.40
16412;DHT22;8315;52.104;6.304;2022-11-20T12:01:44;3.10;98.40
16412;DHT22;8315;52.104;6.304;2022-11-20T12:04:17;3.10;98.40
16412;DHT22;8315;52.104;6.304;2022-11-20T12:06:50;3.10;98.40
16412;DHT22;8315;52.104;6.304;2022-11-20T12:09:18;3.20;98.40
16412;DHT22;8315;52.104;6.304;2022-11-20T12:11:47;3.10;98.40
16412;DHT22;8315;52.104;6.304;2022-11-20T12:14:17;3.10;98.40
16412;DHT22;8315;52.104;6.304;2022-11-20T12:16:49;3.10;98.40
16412;DHT22;8315;52.104;6.304;2022-11-20T12:19:19;3.00;98.40
16412;DHT22;8315;52.104;6.304;2022-11-20T12:21:49;3.20;98.40
16412;DHT22;8315;52.104;6.304;2022-11-20T12:24:27;3.20;98.40
16412;DHT22;8315;52.104;6.304;2022-11-20T12:27:02;3.30;98.40
16412;DHT22;8315;52.104;6.304;2022-11-20T12:29:38;3.20;98.40
16412;DHT22;8315;52.104;6.304;2022-11-20T12:35:23;3.10;98.40
16412;DHT22;8315;52.104;6.304;2022-11-20T12:37:59;3.10;98.40
16412;DHT22;8315;52.104;6.304;2022-11-20T12:40:35;3.10;98.40
16412;DHT22;8315;52.104;6.304;2022-11-20T12:43:10;3.20;98.40
16412;DHT22;8315;52.104;6.304;2022-11-20T12:48:42;3.30;98.40
16412;DHT22;8315;52.104;6.304;2022-11-20T12:51:18;3.20;98.40
16412;DHT22;8315;52.104;6.304;2022-11-20T12:53:55;3.30;98.40
16412;DHT22;8315;52.104;6.304;2022-11-20T12:56:34;3.30;98.40
16412;DHT22;8315;52.104;6.304;2022-11-20T12:59:08;3.30;98.40
16412;DHT22;8315;52.104;6.304;2022-11-20T13:01:45;3.30;98.40
16412;DHT22;8315;52.104;6.304;2022-11-20T13:04:18;3.30;98.40
16412;DHT22;8315;52.104;6.304;2022-11-20T13:06:56;3.30;98.40
16412;DHT22;8315;52.104;6.304;2022-11-20T13:09:23;3.30;98.40
16412;DHT22;8315;52.104;6.304;2022-11-20T13:11:50;3.30;98.40
16412;DHT22;8315;52.104;6.304;2022-11-20T13:14:29;3.30;98.40
16412;DHT22;8315;52.104;6.304;2022-11-20T13:16:59;3.30;98.40
16412;DHT22;8315;52.104;6.304;2022-11-20T13:19:27;3.20;98.40
16412;DHT22;8315;52.104;6.304;2022-11-20T13:21:56;3.20;98.40
16412;DHT22;8315;52.104;6.304;2022-11-20T13:24:24;3.20;98.40
16412;DHT22;8315;52.104;6.304;2022-11-20T13:27:03;3.20;98.40
16412;DHT22;8315;52.104;6.304;2022-11-20T13:29:31;3.10;98.40
16412;DHT22;8315;52.104;6.304;2022-11-20T13:32:03;3.00;98.40
16412;DHT22;8315;52.104;6.304;2022-11-20T13:34:31;3.00;98.40
16412;DHT22;8315;52.104;6.304;2022-11-20T13:36:59;3.00;98.40
16412;DHT22;8315;52.104;6.304;2022-11-20T13:39:29;2.90;98.40
16412;DHT22;8315;52.104;6.304;2022-11-20T13:41:58;3.00;98.40
16412;DHT22;8315;52.104;6.304;2022-11-20T13:44:27;3.10;98.40
16412;DHT22;8315;52.104;6.304;2022-11-20T13:46:56;3.10;98.40
16412;DHT22;8315;52.104;6.304;2022-11-20T13:49:25;3.10;98.40
16412;DHT22;8315;52.104;6.304;2022-11-20T13:51:55;3.10;98.40
16412;DHT22;8315;52.104;6.304;2022-11-20T13:57:26;3.10;98.40
16412;DHT22;8315;52.104;6.304;2022-11-20T14:00:03;3.20;98.40
16412;DHT22;8315;52.104;6.304;2022-11-20T14:02:36;3.20;98.40
16412;DHT22;8315;52.104;6.304;2022-11-20T14:05:03;3.20;98.40
16412;DHT22;8315;52.104;6.304;2022-11-20T14:07:34;3.20;98.40
16412;DHT22;8315;52.104;6.304;2022-11-20T14:10:03;3.10;98.40
16412;DHT22;8315;52.104;6.304;2022-11-20T14:12:31;3.00;98.40
16412;DHT22;8315;52.104;6.304;2022-11-20T14:14:59;3.00;98.40
16412;DHT22;8315;52.104;6.304;2022-11-20T14:17:29;2.90;98.40
16412;DHT22;8315;52.104;6.304;2022-11-20T14:19:58;2.90;98.40
16412;DHT22;8315;52.104;6.304;2022-11-20T14:22:26;2.90;98.40
16412;DHT22;8315;52.104;6.304;2022-11-20T14:25:04;2.90;98.40
16412;DHT22;8315;52.104;6.304;2022-11-20T14:27:33;3.00;98.40
16412;DHT22;8315;52.104;6.304;2022-11-20T14:30:02;3.00;98.40
16412;DHT22;8315;52.104;6.304;2022-11-20T14:32:30;2.90;98.40
16412;DHT22;8315;52.104;6.304;2022-11-20T14:34:58;2.80;98.40
16412;DHT22;8315;52.104;6.304;2022-11-20T14:37:30;2.80;98.40
16412;DHT22;8315;52.104;6.304;2022-11-20T14:40:01;3.00;98.40
16412;DHT22;8315;52.104;6.304;2022-11-20T14:42:28;3.00;98.40
16412;DHT22;8315;52.104;6.304;2022-11-20T14:44:56;3.00;98.40
16412;DHT22;8315;52.104;6.304;2022-11-20T14:47:24;3.00;98.40
16412;DHT22;8315;52.104;6.304;2022-11-20T14:49:52;2.90;98.40
16412;DHT22;8315;52.104;6.304;2022-11-20T14:52:20;3.00;98.40
16412;DHT22;8315;52.104;6.304;2022-11-20T14:54:49;3.00;98.40
16412;DHT22;8315;52.104;6.304;2022-11-20T14:57:22;3.00;98.40
16412;DHT22;8315;52.104;6.304;2022-11-20T14:59:50;3.00;98.40
16412;DHT22;8315;52.104;6.304;2022-11-20T15:02:17;3.10;98.40
16412;DHT22;8315;52.104;6.304;2022-11-20T15:04:45;3.10;98.40
16412;DHT22;8315;52.104;6.304;2022-11-20T15:07:22;3.10;98.40
16412;DHT22;8315;52.104;6.304;2022-11-20T15:09:58;3.20;98.40
16412;DHT22;8315;52.104;6.304;2022-11-20T15:12:27;3.20;98.40
16412;DHT22;8315;52.104;6.304;2022-11-20T15:14:55;3.20;98.40
16412;DHT22;8315;52.104;6.304;2022-11-20T15:17:22;3.20;98.40
16412;DHT22;8315;52.104;6.304;2022-11-20T15:19:49;3.20;98.40
16412;DHT22;8315;52.104;6.304;2022-11-20T15:22:17;3.20;98.40
16412;DHT22;8315;52.104;6.304;2022-11-20T15:24:44;3.20;98.40
16412;DHT22;8315;52.104;6.304;2022-11-20T15:27:11;3.20;98.40
16412;DHT22;8315;52.104;6.304;2022-11-20T15:29:39;3.20;98.40
16412;DHT22;8315;52.104;6.304;2022-11-20T15:32:07;3.10;98.40
16412;DHT22;8315;52.104;6.304;2022-11-20T15:34:34;3.10;98.40
16412;DHT22;8315;52.104;6.304;2022-11-20T15:37:01;3.00;98.40
16412;DHT22;8315;52.104;6.304;2022-11-20T15:39:27;2.90;98.40
16412;DHT22;8315;52.104;6.304;2022-11-20T15:41:54;2.90;98.40
16412;DHT22;8315;52.104;6.304;2022-11-20T15:44:21;2.90;98.40
16412;DHT22;8315;52.104;6.304;2022-11-20T15:46:49;2.80;98.40
16412;DHT22;8315;52.104;6.304;2022-11-20T15:49:16;2.90;98.40
16412;DHT22;8315;52.104;6.304;2022-11-20T15:51:44;2.90;98.40
16412;DHT22;8315;52.104;6.304;2022-11-20T15:54:13;2.90;98.40
16412;DHT22;8315;52.104;6.304;2022-11-20T15:56:42;2.90;98.40
16412;DHT22;8315;52.104;6.304;2022-11-20T15:59:09;3.00;98.40
16412;DHT22;8315;52.104;6.304;2022-11-20T16:01:36;3.00;98.40
16412;DHT22;8315;52.104;6.304;2022-11-20T16:04:07;3.00;98.40
16412;DHT22;8315;52.104;6.304;2022-11-20T16:06:36;3.00;98.40
16412;DHT22;8315;52.104;6.304;2022-11-20T16:09:03;3.00;98.40
16412;DHT22;8315;52.104;6.304;2022-11-20T16:11:30;2.90;98.40